sensor_id;sensor_type;location;lat;lon;timestamp;temperature;humidity
66190;DHT22;52992;52.084;5.412;2023-02-24T00:01:49;7.50;60.20
66190;DHT22;52992;52.084;5.412;2023-02-24T00:04:28;7.50;60.20
66190;DHT22;52992;52.084;5.412;2023-02-24T00:06:55;7.50;60.10
66190;DHT22;52992;52.084;5.412;2023-02-24T00:09:24;7.40;60.00
66190;DHT22;52992;52.084;5.412;2023-02-24T00:11:59;7.40;60.00
66190;DHT22;52992;52.084;5.412;2023-02-24T00:14:29;7.40;60.00
66190;DHT22;52992;52.084;5.412;2023-02-24T00:16:57;7.40;60.00
66190;DHT22;52992;52.084;5.412;2023-02-24T00:19:27;7.40;60.00
66190;DHT22;52992;52.084;5.412;2023-02-24T00:21:54;7.30;60.00
66190;DHT22;52992;52.084;5.412;2023-02-24T00:24:21;7.30;59.90
66190;DHT22;52992;52.084;5.412;2023-02-24T00:26:57;7.30;59.90
66190;DHT22;52992;52.084;5.412;2023-02-24T00:29:28;7.20;59.80
66190;DHT22;52992;52.084;5.412;2023-02-24T00:31:57;7.20;59.80
66190;DHT22;52992;52.084;5.412;2023-02-24T00:34:32;7.20;59.80
66190;DHT22;52992;52.084;5.412;2023-02-24T00:36:59;7.10;59.80
66190;DHT22;52992;52.084;5.412;2023-02-24T00:39:27;7.10;59.70
66190;DHT22;52992;52.084;5.412;2023-02-24T00:41:56;7.10;59.80
66190;DHT22;52992;52.084;5.412;2023-02-24T00:44:39;7.00;59.70
66190;DHT22;52992;52.084;5.412;2023-02-24T00:47:08;7.00;59.60
66190;DHT22;52992;52.084;5.412;2023-02-24T00:49:37;7.00;59.70
66190;DHT22;52992;52.084;5.412;2023-02-24T00:52:15;7.00;59.70
66190;DHT22;52992;52.084;5.412;2023-02-24T00:54:44;7.00;59.70
66190;DHT22;52992;52.084;5.412;2023-02-24T00:57:12;6.90;59.70
66190;DHT22;52992;52.084;5.412;2023-02-24T00:59:39;6.90;59.60
66190;DHT22;52992;52.084;5.412;2023-02-24T01:02:06;6.80;60.20
66190;DHT22;52992;52.084;5.412;2023-02-24T01:04:34;6.80;59.60
66190;DHT22;52992;52.084;5.412;2023-02-24T01:07:05;6.80;59.70
66190;DHT22;52992;52.084;5.412;2023-02-24T01:09:38;6.80;59.70
66190;DHT22;52992;52.084;5.412;2023-02-24T01:12:10;6.80;59.80
66190;DHT22;52992;52.084;5.412;2023-02-24T01:15:05;6.80;59.70
66190;DHT22;52992;52.084;5.412;2023-02-24T01:17:35;6.70;59.70
66190;DHT22;52992;52.084;5.412;2023-02-24T01:20:04;6.70;59.80
66190;DHT22;52992;52.084;5.412;2023-02-24T01:22:47;6.70;59.80
66190;DHT22;52992;52.084;5.412;2023-02-24T01:25:16;6.70;59.90
66190;DHT22;52992;52.084;5.412;2023-02-24T01:27:43;6.60;59.80
66190;DHT22;52992;52.084;5.412;2023-02-24T01:30:10;6.60;59.80
66190;DHT22;52992;52.084;5.412;2023-02-24T01:32:44;6.60;59.80
66190;DHT22;52992;52.084;5.412;2023-02-24T01:35:13;6.60;59.80
66190;DHT22;52992;52.084;5.412;2023-02-24T01:37:40;6.60;59.80
66190;DHT22;52992;52.084;5.412;2023-02-24T01:40:09;6.70;59.80
66190;DHT22;52992;52.084;5.412;2023-02-24T01:42:43;6.60;59.70
66190;DHT22;52992;52.084;5.412;2023-02-24T01:45:17;6.60;59.60
66190;DHT22;52992;52.084;5.412;2023-02-24T01:47:45;6.50;59.60
66190;DHT22;52992;52.084;5.412;2023-02-24T01:52:45;6.50;59.60
66190;DHT22;52992;52.084;5.412;2023-02-24T01:55:21;6.50;59.70
66190;DHT22;52992;52.084;5.412;2023-02-24T01:57:51;6.50;59.70
66190;DHT22;52992;52.084;5.412;2023-02-24T02:00:19;6.40;59.50
66190;DHT22;52992;52.084;5.412;2023-02-24T02:03:17;6.40;59.50
66190;DHT22;52992;52.084;5.412;2023-02-24T02:05:45;6.40;59.60
66190;DHT22;52992;52.084;5.412;2023-02-24T02:08:16;6.40;59.50
66190;DHT22;52992;52.084;5.412;2023-02-24T02:10:43;6.40;59.50
66190;DHT22;52992;52.084;5.412;2023-02-24T02:13:13;6.40;59.50
66190;DHT22;52992;52.084;5.412;2023-02-24T02:21:35;6.30;59.40
66190;DHT22;52992;52.084;5.412;2023-02-24T02:24:25;6.30;59.40
66190;DHT22;52992;52.084;5.412;2023-02-24T02:35:23;6.40;58.90
66190;DHT22;52992;52.084;5.412;2023-02-24T02:37:57;6.40;58.90
66190;DHT22;52992;52.084;5.412;2023-02-24T02:40:36;6.40;58.90
66190;DHT22;52992;52.084;5.412;2023-02-24T02:43:27;6.40;59.10
66190;DHT22;52992;52.084;5.412;2023-02-24T02:46:04;6.30;59.20
66190;DHT22;52992;52.084;5.412;2023-02-24T02:48:45;6.30;59.20
66190;DHT22;52992;52.084;5.412;2023-02-24T02:51:22;6.30;59.20
66190;DHT22;52992;52.084;5.412;2023-02-24T02:54:00;6.20;59.20
66190;DHT22;52992;52.084;5.412;2023-02-24T02:56:31;6.20;59.20
66190;DHT22;52992;52.084;5.412;2023-02-24T02:58:59;6.30;59.20
66190;DHT22;52992;52.084;5.412;2023-02-24T03:01:31;6.30;59.20
66190;DHT22;52992;52.084;5.412;2023-02-24T03:04:03;6.20;59.10
66190;DHT22;52992;52.084;5.412;2023-02-24T03:06:45;6.20;59.10
66190;DHT22;52992;52.084;5.412;2023-02-24T03:09:18;6.20;59.10
66190;DHT22;52992;52.084;5.412;2023-02-24T03:11:51;6.20;59.00
66190;DHT22;52992;52.084;5.412;2023-02-24T03:14:24;6.30;59.10
66190;DHT22;52992;52.084;5.412;2023-02-24T03:16:54;6.20;59.00
66190;DHT22;52992;52.084;5.412;2023-02-24T03:19:28;6.20;59.00
66190;DHT22;52992;52.084;5.412;2023-02-24T03:22:03;6.20;59.00
66190;DHT22;52992;52.084;5.412;2023-02-24T03:24:32;6.20;59.00
66190;DHT22;52992;52.084;5.412;2023-02-24T03:27:21;6.20;58.90
66190;DHT22;52992;52.084;5.412;2023-02-24T03:29:57;6.20;58.90
66190;DHT22;52992;52.084;5.412;2023-02-24T03:32:31;6.30;58.90
66190;DHT22;52992;52.084;5.412;2023-02-24T03:35:14;6.30;58.80
66190;DHT22;52992;52.084;5.412;2023-02-24T03:37:44;6.40;58.70
66190;DHT22;52992;52.084;5.412;2023-02-24T03:40:14;6.40;58.70
66190;DHT22;52992;52.084;5.412;2023-02-24T03:42:56;6.40;58.90
66190;DHT22;52992;52.084;5.412;2023-02-24T03:45:27;6.40;58.80
66190;DHT22;52992;52.084;5.412;2023-02-24T03:47:54;6.50;58.80
66190;DHT22;52992;52.084;5.412;2023-02-24T03:50:22;6.60;58.60
66190;DHT22;52992;52.084;5.412;2023-02-24T04:01:22;6.70;58.20
66190;DHT22;52992;52.084;5.412;2023-02-24T04:04:00;6.80;58.10
66190;DHT22;52992;52.084;5.412;2023-02-24T04:07:14;6.80;58.10
66190;DHT22;52992;52.084;5.412;2023-02-24T04:15:26;6.80;58.20
66190;DHT22;52992;52.084;5.412;2023-02-24T04:17:59;6.90;58.10
66190;DHT22;52992;52.084;5.412;2023-02-24T04:20:33;6.90;58.10
66190;DHT22;52992;52.084;5.412;2023-02-24T04:23:10;6.90;58.00
66190;DHT22;52992;52.084;5.412;2023-02-24T04:25:40;6.90;58.00
66190;DHT22;52992;52.084;5.412;2023-02-24T04:28:09;7.00;58.00
66190;DHT22;52992;52.084;5.412;2023-02-24T04:30:46;7.00;58.00
66190;DHT22;52992;52.084;5.412;2023-02-24T04:33:14;7.10;57.90
66190;DHT22;52992;52.084;5.412;2023-02-24T04:35:44;7.10;57.80
66190;DHT22;52992;52.084;5.412;2023-02-24T04:38:11;7.10;57.80
66190;DHT22;52992;52.084;5.412;2023-02-24T04:40:38;7.10;57.70
66190;DHT22;52992;52.084;5.412;2023-02-24T04:43:06;7.20;57.60
66190;DHT22;52992;52.084;5.412;2023-02-24T04:45:34;7.20;57.60
66190;DHT22;52992;52.084;5.412;2023-02-24T04:48:02;7.20;57.50
66190;DHT22;52992;52.084;5.412;2023-02-24T04:50:32;7.30;57.60
66190;DHT22;52992;52.084;5.412;2023-02-24T04:53:19;7.30;57.40
66190;DHT22;52992;52.084;5.412;2023-02-24T04:55:52;7.30;57.40
66190;DHT22;52992;52.084;5.412;2023-02-24T04:58:21;7.40;57.10
66190;DHT22;52992;52.084;5.412;2023-02-24T05:00:51;7.30;57.10
66190;DHT22;52992;52.084;5.412;2023-02-24T05:03:23;7.30;57.00
66190;DHT22;52992;52.084;5.412;2023-02-24T05:05:56;7.30;57.00
66190;DHT22;52992;52.084;5.412;2023-02-24T05:08:25;7.30;57.20
66190;DHT22;52992;52.084;5.412;2023-02-24T05:10:53;7.30;57.30
66190;DHT22;52992;52.084;5.412;2023-02-24T05:13:30;7.30;57.20
66190;DHT22;52992;52.084;5.412;2023-02-24T05:16:03;7.30;57.40
66190;DHT22;52992;52.084;5.412;2023-02-24T05:18:31;7.30;57.40
66190;DHT22;52992;52.084;5.412;2023-02-24T05:21:15;7.30;57.30
66190;DHT22;52992;52.084;5.412;2023-02-24T05:24:01;7.30;57.30
66190;DHT22;52992;52.084;5.412;2023-02-24T05:26:38;7.30;57.10
66190;DHT22;52992;52.084;5.412;2023-02-24T05:29:07;7.40;57.20
66190;DHT22;52992;52.084;5.412;2023-02-24T05:31:34;7.40;57.20
66190;DHT22;52992;52.084;5.412;2023-02-24T05:34:04;7.40;57.20
66190;DHT22;52992;52.084;5.412;2023-02-24T05:36:35;7.40;57.10
66190;DHT22;52992;52.084;5.412;2023-02-24T05:39:03;7.40;57.10
66190;DHT22;52992;52.084;5.412;2023-02-24T05:41:39;7.40;57.20
66190;DHT22;52992;52.084;5.412;2023-02-24T05:44:11;7.40;57.20
66190;DHT22;52992;52.084;5.412;2023-02-24T05:46:40;7.30;57.10
66190;DHT22;52992;52.084;5.412;2023-02-24T05:49:14;7.30;57.10
66190;DHT22;52992;52.084;5.412;2023-02-24T05:51:41;7.30;57.10
66190;DHT22;52992;52.084;5.412;2023-02-24T05:54:29;7.30;57.10
66190;DHT22;52992;52.084;5.412;2023-02-24T05:57:10;7.40;57.20
66190;DHT22;52992;52.084;5.412;2023-02-24T05:59:41;7.40;57.20
66190;DHT22;52992;52.084;5.412;2023-02-24T06:02:10;7.40;57.20
66190;DHT22;52992;52.084;5.412;2023-02-24T06:04:41;7.40;57.10
66190;DHT22;52992;52.084;5.412;2023-02-24T06:07:25;7.40;57.10
66190;DHT22;52992;52.084;5.412;2023-02-24T06:09:55;7.40;57.10
66190;DHT22;52992;52.084;5.412;2023-02-24T06:12:31;7.30;57.00
66190;DHT22;52992;52.084;5.412;2023-02-24T06:14:59;7.40;57.10
66190;DHT22;52992;52.084;5.412;2023-02-24T06:17:27;7.40;57.10
66190;DHT22;52992;52.084;5.412;2023-02-24T06:19:54;7.50;57.10
66190;DHT22;52992;52.084;5.412;2023-02-24T06:22:23;7.40;56.90
66190;DHT22;52992;52.084;5.412;2023-02-24T06:24:51;7.40;56.80
66190;DHT22;52992;52.084;5.412;2023-02-24T06:27:20;7.50;56.80
66190;DHT22;52992;52.084;5.412;2023-02-24T06:29:51;7.50;56.70
66190;DHT22;52992;52.084;5.412;2023-02-24T06:32:22;7.50;56.70
66190;DHT22;52992;52.084;5.412;2023-02-24T06:34:50;7.60;56.60
66190;DHT22;52992;52.084;5.412;2023-02-24T06:37:17;7.60;56.50
66190;DHT22;52992;52.084;5.412;2023-02-24T06:39:45;7.60;56.60
66190;DHT22;52992;52.084;5.412;2023-02-24T06:42:12;7.60;56.50
66190;DHT22;52992;52.084;5.412;2023-02-24T06:44:40;7.60;56.40
66190;DHT22;52992;52.084;5.412;2023-02-24T06:47:09;7.60;56.30
66190;DHT22;52992;52.084;5.412;2023-02-24T06:49:36;7.60;56.30
66190;DHT22;52992;52.084;5.412;2023-02-24T06:52:04;7.70;56.40
66190;DHT22;52992;52.084;5.412;2023-02-24T06:54:31;7.70;56.30
66190;DHT22;52992;52.084;5.412;2023-02-24T06:57:02;7.70;56.20
66190;DHT22;52992;52.084;5.412;2023-02-24T06:59:30;7.70;56.20
66190;DHT22;52992;52.084;5.412;2023-02-24T07:01:59;7.80;56.30
66190;DHT22;52992;52.084;5.412;2023-02-24T07:04:27;7.80;56.10
66190;DHT22;52992;52.084;5.412;2023-02-24T07:06:58;7.80;56.10
66190;DHT22;52992;52.084;5.412;2023-02-24T07:09:29;7.80;56.00
66190;DHT22;52992;52.084;5.412;2023-02-24T07:11:57;7.80;55.80
66190;DHT22;52992;52.084;5.412;2023-02-24T07:14:28;7.80;55.90
66190;DHT22;52992;52.084;5.412;2023-02-24T07:16:59;7.80;55.80
66190;DHT22;52992;52.084;5.412;2023-02-24T07:19:30;7.80;55.80
66190;DHT22;52992;52.084;5.412;2023-02-24T07:22:00;7.90;56.50
66190;DHT22;52992;52.084;5.412;2023-02-24T07:24:33;7.90;55.80
66190;DHT22;52992;52.084;5.412;2023-02-24T07:27:07;8.00;55.80
66190;DHT22;52992;52.084;5.412;2023-02-24T07:29:35;8.00;55.50
66190;DHT22;52992;52.084;5.412;2023-02-24T07:32:06;8.00;55.40
66190;DHT22;52992;52.084;5.412;2023-02-24T07:34:34;8.00;55.60
66190;DHT22;52992;52.084;5.412;2023-02-24T07:37:06;8.10;55.70
66190;DHT22;52992;52.084;5.412;2023-02-24T07:39:37;8.10;55.70
66190;DHT22;52992;52.084;5.412;2023-02-24T07:42:08;8.10;55.90
66190;DHT22;52992;52.084;5.412;2023-02-24T07:44:43;8.20;55.90
66190;DHT22;52992;52.084;5.412;2023-02-24T07:47:11;8.20;55.80
66190;DHT22;52992;52.084;5.412;2023-02-24T07:49:39;8.20;55.90
66190;DHT22;52992;52.084;5.412;2023-02-24T07:52:06;8.20;55.80
66190;DHT22;52992;52.084;5.412;2023-02-24T07:54:34;8.20;55.90
66190;DHT22;52992;52.084;5.412;2023-02-24T07:57:00;8.30;56.10
66190;DHT22;52992;52.084;5.412;2023-02-24T07:59:29;8.30;56.10
66190;DHT22;52992;52.084;5.412;2023-02-24T08:01:58;8.30;56.00
66190;DHT22;52992;52.084;5.412;2023-02-24T08:04:28;8.40;55.90
66190;DHT22;52992;52.084;5.412;2023-02-24T08:06:56;8.50;55.80
66190;DHT22;52992;52.084;5.412;2023-02-24T08:09:26;8.50;55.90
66190;DHT22;52992;52.084;5.412;2023-02-24T08:12:21;8.50;56.00
66190;DHT22;52992;52.084;5.412;2023-02-24T08:14:50;8.50;56.20
66190;DHT22;52992;52.084;5.412;2023-02-24T08:17:21;8.50;56.30
66190;DHT22;52992;52.084;5.412;2023-02-24T08:19:50;8.50;56.40
66190;DHT22;52992;52.084;5.412;2023-02-24T08:22:34;8.50;56.60
66190;DHT22;52992;52.084;5.412;2023-02-24T08:25:03;8.60;56.60
66190;DHT22;52992;52.084;5.412;2023-02-24T08:27:35;8.60;56.60
66190;DHT22;52992;52.084;5.412;2023-02-24T08:30:05;8.70;56.70
66190;DHT22;52992;52.084;5.412;2023-02-24T08:32:38;8.80;56.80
66190;DHT22;52992;52.084;5.412;2023-02-24T08:35:12;8.80;56.80
66190;DHT22;52992;52.084;5.412;2023-02-24T08:37:47;8.80;57.50
66190;DHT22;52992;52.084;5.412;2023-02-24T08:43:05;8.80;58.90
66190;DHT22;52992;52.084;5.412;2023-02-24T08:45:59;8.70;59.80
66190;DHT22;52992;52.084;5.412;2023-02-24T08:48:31;8.80;60.20
66190;DHT22;52992;52.084;5.412;2023-02-24T08:53:42;9.00;60.70
66190;DHT22;52992;52.084;5.412;2023-02-24T08:56:12;9.10;60.50
66190;DHT22;52992;52.084;5.412;2023-02-24T08:58:41;9.10;60.20
66190;DHT22;52992;52.084;5.412;2023-02-24T09:01:28;9.10;60.40
66190;DHT22;52992;52.084;5.412;2023-02-24T09:04:06;9.00;60.60
66190;DHT22;52992;52.084;5.412;2023-02-24T09:09:04;9.10;60.90
66190;DHT22;52992;52.084;5.412;2023-02-24T09:11:49;9.10;60.70
66190;DHT22;52992;52.084;5.412;2023-02-24T09:14:24;9.10;61.00
66190;DHT22;52992;52.084;5.412;2023-02-24T09:16:56;9.20;60.90
66190;DHT22;52992;52.084;5.412;2023-02-24T09:19:36;9.30;60.80
66190;DHT22;52992;52.084;5.412;2023-02-24T09:22:08;9.40;60.60
66190;DHT22;52992;52.084;5.412;2023-02-24T09:24:47;9.30;60.70
66190;DHT22;52992;52.084;5.412;2023-02-24T09:27:16;9.40;60.90
66190;DHT22;52992;52.084;5.412;2023-02-24T09:29:43;9.50;60.80
66190;DHT22;52992;52.084;5.412;2023-02-24T09:32:15;9.70;61.40
66190;DHT22;52992;52.084;5.412;2023-02-24T09:34:43;9.70;60.50
66190;DHT22;52992;52.084;5.412;2023-02-24T09:37:11;9.90;60.60
66190;DHT22;52992;52.084;5.412;2023-02-24T09:39:51;9.90;60.40
66190;DHT22;52992;52.084;5.412;2023-02-24T09:42:31;10.00;60.20
66190;DHT22;52992;52.084;5.412;2023-02-24T09:45:17;10.10;60.60
66190;DHT22;52992;52.084;5.412;2023-02-24T09:48:08;10.20;60.50
66190;DHT22;52992;52.084;5.412;2023-02-24T09:50:42;10.30;60.10
66190;DHT22;52992;52.084;5.412;2023-02-24T09:53:29;10.30;60.00
66190;DHT22;52992;52.084;5.412;2023-02-24T09:56:33;10.30;60.30
66190;DHT22;52992;52.084;5.412;2023-02-24T09:59:41;10.20;60.70
66190;DHT22;52992;52.084;5.412;2023-02-24T10:02:32;10.10;61.10
66190;DHT22;52992;52.084;5.412;2023-02-24T10:05:18;10.10;61.70
66190;DHT22;52992;52.084;5.412;2023-02-24T10:07:48;10.00;61.70
66190;DHT22;52992;52.084;5.412;2023-02-24T10:10:26;9.90;62.70
66190;DHT22;52992;52.084;5.412;2023-02-24T10:13:01;9.90;62.40
66190;DHT22;52992;52.084;5.412;2023-02-24T10:15:45;9.80;62.60
66190;DHT22;52992;52.084;5.412;2023-02-24T10:18:44;9.80;62.90
66190;DHT22;52992;52.084;5.412;2023-02-24T10:21:33;9.80;63.00
66190;DHT22;52992;52.084;5.412;2023-02-24T10:24:41;9.80;63.40
66190;DHT22;52992;52.084;5.412;2023-02-24T10:32:39;9.70;64.50
66190;DHT22;52992;52.084;5.412;2023-02-24T10:35:14;9.60;65.60
66190;DHT22;52992;52.084;5.412;2023-02-24T10:37:42;9.80;65.20
66190;DHT22;52992;52.084;5.412;2023-02-24T10:40:11;9.70;65.30
66190;DHT22;52992;52.084;5.412;2023-02-24T10:42:42;9.70;65.70
66190;DHT22;52992;52.084;5.412;2023-02-24T10:45:25;9.80;65.90
66190;DHT22;52992;52.084;5.412;2023-02-24T10:47:57;9.80;66.00
66190;DHT22;52992;52.084;5.412;2023-02-24T10:50:31;9.70;66.70
66190;DHT22;52992;52.084;5.412;2023-02-24T10:53:12;9.70;67.90
66190;DHT22;52992;52.084;5.412;2023-02-24T10:55:56;9.70;68.80
66190;DHT22;52992;52.084;5.412;2023-02-24T10:58:43;9.70;69.20
66190;DHT22;52992;52.084;5.412;2023-02-24T11:01:17;9.70;69.70
66190;DHT22;52992;52.084;5.412;2023-02-24T11:03:52;9.70;70.00
66190;DHT22;52992;52.084;5.412;2023-02-24T11:06:38;9.70;70.30
66190;DHT22;52992;52.084;5.412;2023-02-24T11:09:16;9.80;70.50
66190;DHT22;52992;52.084;5.412;2023-02-24T11:14:56;9.70;71.30
66190;DHT22;52992;52.084;5.412;2023-02-24T11:17:57;9.70;71.60
66190;DHT22;52992;52.084;5.412;2023-02-24T11:23:24;9.80;72.30
66190;DHT22;52992;52.084;5.412;2023-02-24T11:25:58;9.80;72.50
66190;DHT22;52992;52.084;5.412;2023-02-24T11:28:45;9.80;72.50
66190;DHT22;52992;52.084;5.412;2023-02-24T11:42:10;10.10;72.50
66190;DHT22;52992;52.084;5.412;2023-02-24T11:45:01;10.10;72.90
66190;DHT22;52992;52.084;5.412;2023-02-24T11:47:37;10.10;73.60
66190;DHT22;52992;52.084;5.412;2023-02-24T11:50:29;10.20;73.80
66190;DHT22;52992;52.084;5.412;2023-02-24T11:53:00;10.20;73.50
66190;DHT22;52992;52.084;5.412;2023-02-24T11:55:39;10.30;73.50
66190;DHT22;52992;52.084;5.412;2023-02-24T11:58:16;10.40;73.70
66190;DHT22;52992;52.084;5.412;2023-02-24T12:00:52;10.50;73.70
66190;DHT22;52992;52.084;5.412;2023-02-24T12:03:41;10.40;73.40
66190;DHT22;52992;52.084;5.412;2023-02-24T12:06:39;10.50;74.20
66190;DHT22;52992;52.084;5.412;2023-02-24T12:09:12;10.50;74.90
66190;DHT22;52992;52.084;5.412;2023-02-24T12:11:49;10.60;74.40
66190;DHT22;52992;52.084;5.412;2023-02-24T12:14:35;10.70;74.40
66190;DHT22;52992;52.084;5.412;2023-02-24T12:22:44;11.40;74.50
66190;DHT22;52992;52.084;5.412;2023-02-24T12:25:13;12.10;74.00
66190;DHT22;52992;52.084;5.412;2023-02-24T12:34:05;13.00;70.70
66190;DHT22;52992;52.084;5.412;2023-02-24T12:39:28;12.70;71.10
66190;DHT22;52992;52.084;5.412;2023-02-24T12:42:00;12.60;71.50
66190;DHT22;52992;52.084;5.412;2023-02-24T12:44:52;12.60;71.70
66190;DHT22;52992;52.084;5.412;2023-02-24T12:48:02;12.50;72.80
66190;DHT22;52992;52.084;5.412;2023-02-24T12:53:54;13.10;73.10
66190;DHT22;52992;52.084;5.412;2023-02-24T12:56:26;13.20;71.70
66190;DHT22;52992;52.084;5.412;2023-02-24T12:58:59;13.10;71.30
66190;DHT22;52992;52.084;5.412;2023-02-24T13:13:02;14.10;70.20
66190;DHT22;52992;52.084;5.412;2023-02-24T13:15:33;14.10;69.50
66190;DHT22;52992;52.084;5.412;2023-02-24T13:18:00;13.80;68.20
66190;DHT22;52992;52.084;5.412;2023-02-24T13:20:36;13.60;70.00
66190;DHT22;52992;52.084;5.412;2023-02-24T13:23:19;13.40;70.70
66190;DHT22;52992;52.084;5.412;2023-02-24T13:25:51;13.30;70.70
66190;DHT22;52992;52.084;5.412;2023-02-24T13:28:39;13.20;70.10
66190;DHT22;52992;52.084;5.412;2023-02-24T13:31:11;13.00;70.60
66190;DHT22;52992;52.084;5.412;2023-02-24T13:33:41;12.90;70.20
66190;DHT22;52992;52.084;5.412;2023-02-24T13:36:34;13.00;71.30
66190;DHT22;52992;52.084;5.412;2023-02-24T13:39:30;13.30;69.70
66190;DHT22;52992;52.084;5.412;2023-02-24T13:42:27;13.30;69.20
66190;DHT22;52992;52.084;5.412;2023-02-24T13:47:34;13.10;67.50
66190;DHT22;52992;52.084;5.412;2023-02-24T14:01:32;11.00;69.70
66190;DHT22;52992;52.084;5.412;2023-02-24T14:04:13;11.00;70.60
66190;DHT22;52992;52.084;5.412;2023-02-24T14:06:49;11.10;71.00
66190;DHT22;52992;52.084;5.412;2023-02-24T14:09:54;11.20;71.60
66190;DHT22;52992;52.084;5.412;2023-02-24T14:12:17;11.40;71.00
66190;DHT22;52992;52.084;5.412;2023-02-24T14:14:45;11.40;70.50
66190;DHT22;52992;52.084;5.412;2023-02-24T14:19:46;11.00;70.00
66190;DHT22;52992;52.084;5.412;2023-02-24T14:22:18;11.00;71.00
66190;DHT22;52992;52.084;5.412;2023-02-24T14:24:46;11.10;70.30
66190;DHT22;52992;52.084;5.412;2023-02-24T14:27:24;11.10;71.50
66190;DHT22;52992;52.084;5.412;2023-02-24T14:29:52;11.30;71.50
66190;DHT22;52992;52.084;5.412;2023-02-24T14:32:24;11.50;71.60
66190;DHT22;52992;52.084;5.412;2023-02-24T14:34:52;11.80;70.50
66190;DHT22;52992;52.084;5.412;2023-02-24T14:37:28;11.90;70.90
66190;DHT22;52992;52.084;5.412;2023-02-24T14:39:58;12.00;70.00
66190;DHT22;52992;52.084;5.412;2023-02-24T14:42:26;11.80;69.50
66190;DHT22;52992;52.084;5.412;2023-02-24T14:44:57;11.70;69.80
66190;DHT22;52992;52.084;5.412;2023-02-24T14:47:26;11.70;69.50
66190;DHT22;52992;52.084;5.412;2023-02-24T14:49:59;11.80;69.80
66190;DHT22;52992;52.084;5.412;2023-02-24T14:52:38;11.90;69.80
66190;DHT22;52992;52.084;5.412;2023-02-24T14:55:17;11.90;70.20
66190;DHT22;52992;52.084;5.412;2023-02-24T15:00:28;12.10;70.10
66190;DHT22;52992;52.084;5.412;2023-02-24T15:03:22;12.00;69.70
66190;DHT22;52992;52.084;5.412;2023-02-24T15:05:52;11.80;69.10
66190;DHT22;52992;52.084;5.412;2023-02-24T15:08:29;11.60;69.40
66190;DHT22;52992;52.084;5.412;2023-02-24T15:10:57;11.40;68.60
66190;DHT22;52992;52.084;5.412;2023-02-24T15:13:49;11.20;69.00
66190;DHT22;52992;52.084;5.412;2023-02-24T15:16:28;11.00;70.20
66190;DHT22;52992;52.084;5.412;2023-02-24T15:18:58;10.80;70.50
66190;DHT22;52992;52.084;5.412;2023-02-24T15:21:33;10.80;71.10
66190;DHT22;52992;52.084;5.412;2023-02-24T15:24:39;10.90;70.80
66190;DHT22;52992;52.084;5.412;2023-02-24T15:29:39;10.70;68.80
66190;DHT22;52992;52.084;5.412;2023-02-24T15:32:20;10.60;69.80
66190;DHT22;52992;52.084;5.412;2023-02-24T15:34:47;10.50;70.10
66190;DHT22;52992;52.084;5.412;2023-02-24T15:37:22;10.40;69.00
66190;DHT22;52992;52.084;5.412;2023-02-24T15:39:51;10.30;71.00
66190;DHT22;52992;52.084;5.412;2023-02-24T15:42:26;10.30;70.70
66190;DHT22;52992;52.084;5.412;2023-02-24T15:44:59;10.40;71.10
66190;DHT22;52992;52.084;5.412;2023-02-24T15:47:29;10.50;71.10
66190;DHT22;52992;52.084;5.412;2023-02-24T15:49:58;10.60;69.40
66190;DHT22;52992;52.084;5.412;2023-02-24T15:52:26;10.60;70.40
66190;DHT22;52992;52.084;5.412;2023-02-24T15:54:55;10.60;69.60
66190;DHT22;52992;52.084;5.412;2023-02-24T15:57:23;10.50;69.50
66190;DHT22;52992;52.084;5.412;2023-02-24T15:59:51;10.50;70.30
66190;DHT22;52992;52.084;5.412;2023-02-24T16:02:21;10.50;70.00
66190;DHT22;52992;52.084;5.412;2023-02-24T16:04:49;10.50;70.00
66190;DHT22;52992;52.084;5.412;2023-02-24T16:07:21;10.60;70.30
66190;DHT22;52992;52.084;5.412;2023-02-24T16:09:51;10.70;70.20
66190;DHT22;52992;52.084;5.412;2023-02-24T16:12:25;10.70;70.90
66190;DHT22;52992;52.084;5.412;2023-02-24T16:14:54;10.70;68.50
66190;DHT22;52992;52.084;5.412;2023-02-24T16:17:40;10.60;69.00
66190;DHT22;52992;52.084;5.412;2023-02-24T16:20:19;10.70;68.50
66190;DHT22;52992;52.084;5.412;2023-02-24T16:22:54;10.70;68.80
66190;DHT22;52992;52.084;5.412;2023-02-24T16:25:22;10.50;68.70
66190;DHT22;52992;52.084;5.412;2023-02-24T16:27:49;10.50;68.30
66190;DHT22;52992;52.084;5.412;2023-02-24T16:30:18;10.50;68.30
66190;DHT22;52992;52.084;5.412;2023-02-24T16:32:49;10.40;68.70
66190;DHT22;52992;52.084;5.412;2023-02-24T16:35:16;10.50;68.40
66190;DHT22;52992;52.084;5.412;2023-02-24T16:37:45;10.50;68.10
66190;DHT22;52992;52.084;5.412;2023-02-24T16:40:25;10.50;67.20
66190;DHT22;52992;52.084;5.412;2023-02-24T16:42:53;10.50;67.90
66190;DHT22;52992;52.084;5.412;2023-02-24T16:45:20;10.60;68.20
66190;DHT22;52992;52.084;5.412;2023-02-24T16:47:54;10.60;67.60
66190;DHT22;52992;52.084;5.412;2023-02-24T16:50:26;10.60;67.10
66190;DHT22;52992;52.084;5.412;2023-02-24T16:52:54;10.50;65.90
66190;DHT22;52992;52.084;5.412;2023-02-24T16:55:21;10.40;66.50
66190;DHT22;52992;52.084;5.412;2023-02-24T16:57:48;10.40;66.30
66190;DHT22;52992;52.084;5.412;2023-02-24T17:00:16;10.40;66.20
66190;DHT22;52992;52.084;5.412;2023-02-24T17:02:44;10.30;66.60
66190;DHT22;52992;52.084;5.412;2023-02-24T17:05:20;10.30;67.00
66190;DHT22;52992;52.084;5.412;2023-02-24T17:07:50;10.20;66.10
66190;DHT22;52992;52.084;5.412;2023-02-24T17:10:18;10.10;66.00
66190;DHT22;52992;52.084;5.412;2023-02-24T17:12:45;10.10;67.00
66190;DHT22;52992;52.084;5.412;2023-02-24T17:15:17;10.10;67.10
66190;DHT22;52992;52.084;5.412;2023-02-24T17:17:44;10.10;66.70
66190;DHT22;52992;52.084;5.412;2023-02-24T17:20:15;10.20;66.20
66190;DHT22;52992;52.084;5.412;2023-02-24T17:22:43;10.10;65.20
66190;DHT22;52992;52.084;5.412;2023-02-24T17:25:20;10.00;65.70
66190;DHT22;52992;52.084;5.412;2023-02-24T17:27:47;9.90;65.40
66190;DHT22;52992;52.084;5.412;2023-02-24T17:30:18;9.90;65.50
66190;DHT22;52992;52.084;5.412;2023-02-24T17:32:45;9.70;65.70
66190;DHT22;52992;52.084;5.412;2023-02-24T17:35:12;9.60;66.40
66190;DHT22;52992;52.084;5.412;2023-02-24T17:37:39;9.60;66.40
66190;DHT22;52992;52.084;5.412;2023-02-24T17:40:06;9.70;66.70
66190;DHT22;52992;52.084;5.412;2023-02-24T17:42:33;9.70;66.80
66190;DHT22;52992;52.084;5.412;2023-02-24T17:45:00;9.70;66.30
66190;DHT22;52992;52.084;5.412;2023-02-24T17:47:27;9.70;66.20
66190;DHT22;52992;52.084;5.412;2023-02-24T17:49:54;9.70;65.30
66190;DHT22;52992;52.084;5.412;2023-02-24T17:52:21;9.60;66.40
66190;DHT22;52992;52.084;5.412;2023-02-24T17:54:49;9.50;66.20
66190;DHT22;52992;52.084;5.412;2023-02-24T17:57:15;9.50;66.20
66190;DHT22;52992;52.084;5.412;2023-02-24T17:59:43;9.40;66.70
66190;DHT22;52992;52.084;5.412;2023-02-24T18:02:13;9.40;66.00
66190;DHT22;52992;52.084;5.412;2023-02-24T18:04:40;9.40;64.90
66190;DHT22;52992;52.084;5.412;2023-02-24T18:07:08;9.40;64.70
66190;DHT22;52992;52.084;5.412;2023-02-24T18:09:35;9.50;64.60
66190;DHT22;52992;52.084;5.412;2023-02-24T18:12:03;9.50;64.10
66190;DHT22;52992;52.084;5.412;2023-02-24T18:14:30;9.60;63.60